Alma, Illinois
Current Conditions -  °F | °C
As of 1:15 AM on Wednesday 22 Oct 2014 (Local Time) from KSLO Reporting Station
Clear Clear  
Wind Chill: 47°   Ceiling: Unl
Heat Index: 47°   Visibility: 10mi
Dew Point: 44°   Wind: 3mph
Humidity: 88%   Direction: 50°NE
Pressure: 30.23"   Gusts: NA
Location:  38.72°N, 88.91°W
Report Text: KSLO 220615Z AUTO 05003KT 10SM CLR 08/06 A3023 RMK AO2 T00820064
Loading
Personal Weather Stations






























Interactive Weather Map
Tropical Storm Tracking
New forecast layout! Learn more

10-Day Weather Forecast

Advertisements
Track Severe Weather on mobile